Time;durP1;ratioP1;P1;durP2;ratioP2;P2;SDS_P1;SDS_P2;PMS_P1;PMS_P2;Temp;Humidity;BMP_temperature;BMP_pressure;BME280_temperature;BME280_humidity;BME280_pressure;Samples;Min_cycle;Max_cycle;Signal;HPM_P1;HPM_P2
2022/04/06 00:01:36;;;;;;;5.45;1.55;;;;;;;;;;6118008;23;20018;-46
2022/04/06 00:04:01;;;;;;;7.22;2.20;;;;;;;;;;6117775;23;20026;-44
2022/04/06 00:06:26;;;;;;;13.73;1.55;;;;;;;;;;6116117;23;20110;-48
2022/04/06 00:08:52;;;;;;;6.32;1.58;;;;;;;;;;6117058;23;20037;-46
2022/04/06 00:11:17;;;;;;;7.85;1.75;;;;;;;;;;6117450;23;20021;-44
2022/04/06 00:13:42;;;;;;;7.57;3.17;;;;;;;;;;6117128;23;20025;-46
2022/04/06 00:16:07;;;;;;;7.80;2.63;;;;;;;;;;6118138;23;20065;-45
2022/04/06 00:18:33;;;;;;;6.82;2.17;;;;;;;;;;6116904;23;20097;-49
2022/04/06 00:20:58;;;;;;;5.72;1.65;;;;;;;;;;6118273;23;20026;-44
2022/04/06 00:23:23;;;;;;;9.82;1.98;;;;;;;;;;6115351;23;20018;-44
2022/04/06 00:25:49;;;;;;;12.90;3.90;;;;;;;;;;6118422;23;20010;-47
2022/04/06 00:28:14;;;;;;;8.95;2.78;;;;;;;;;;6116948;23;20511;-45
2022/04/06 00:30:39;;;;;;;6.72;2.22;;;;;;;;;;6117349;23;20089;-46
2022/04/06 00:33:04;;;;;;;11.05;2.30;;;;;;;;;;6117915;23;20647;-46
2022/04/06 00:35:31;;;;;;;6.35;1.73;;;;;;;;;;6119107;23;20098;-44
2022/04/06 00:37:57;;;;;;;4.03;1.70;;;;;;;;;;6118883;23;20017;-45
2022/04/06 00:40:23;;;;;;;16.50;2.40;;;;;;;;;;6119819;23;20029;-46
2022/04/06 00:42:49;;;;;;;11.40;2.10;;;;;;;;;;6118450;23;20455;-46
2022/04/06 00:45:15;;;;;;;7.72;2.13;;;;;;;;;;6142139;23;20018;-45
2022/04/06 00:47:40;;;;;;;16.50;1.83;;;;;;;;;;6118020;23;20522;-45
2022/04/06 00:50:05;;;;;;;8.93;1.80;;;;;;;;;;6119616;23;20022;-48
2022/04/06 00:52:32;;;;;;;13.27;2.15;;;;;;;;;;6118567;23;20495;-46
2022/04/06 00:54:59;;;;;;;11.90;1.83;;;;;;;;;;6120129;23;20022;-46
2022/04/06 00:57:24;;;;;;;9.70;1.85;;;;;;;;;;6117977;23;20010;-45
2022/04/06 00:59:50;;;;;;;11.20;2.22;;;;;;;;;;6120452;23;20556;-45
2022/04/06 01:02:16;;;;;;;10.48;2.92;;;;;;;;;;6114093;23;20022;-48
2022/04/06 01:04:42;;;;;;;7.90;1.67;;;;;;;;;;6120138;23;20010;-45
2022/04/06 01:07:07;;;;;;;12.25;2.20;;;;;;;;;;6117867;23;20109;-47
2022/04/06 01:09:32;;;;;;;9.48;2.25;;;;;;;;;;6119211;23;20018;-46
2022/04/06 01:11:59;;;;;;;11.00;2.60;;;;;;;;;;6119001;23;20037;-45
2022/04/06 01:14:25;;;;;;;10.13;2.35;;;;;;;;;;6118488;23;20476;-49
2022/04/06 01:17:04;;;;;;;12.43;2.30;;;;;;;;;;6119648;23;20014;-46
2022/04/06 01:19:44;;;;;;;12.13;2.25;;;;;;;;;;6117256;23;20021;-46
2022/04/06 01:22:13;;;;;;;10.82;2.42;;;;;;;;;;6118243;23;20048;-45
2022/04/06 01:24:39;;;;;;;8.38;2.15;;;;;;;;;;6118042;23;20026;-45
2022/04/06 01:27:05;;;;;;;13.40;2.22;;;;;;;;;;6119900;23;20033;-46
2022/04/06 01:29:30;;;;;;;8.73;1.73;;;;;;;;;;6118567;23;20021;-44
2022/04/06 01:31:56;;;;;;;9.73;2.38;;;;;;;;;;6119384;23;20069;-45
2022/04/06 01:34:21;;;;;;;11.48;2.20;;;;;;;;;;6118124;23;20012;-46
2022/04/06 01:36:47;;;;;;;6.55;1.67;;;;;;;;;;6120163;23;20040;-46
2022/04/06 01:39:12;;;;;;;5.05;1.50;;;;;;;;;;6117010;23;20021;-47
2022/04/06 01:41:38;;;;;;;11.52;2.40;;;;;;;;;;6119757;23;20368;-46
2022/04/06 01:44:04;;;;;;;6.72;2.33;;;;;;;;;;6140535;23;20069;-47
2022/04/06 01:46:29;;;;;;;4.28;1.95;;;;;;;;;;6119377;23;20018;-47
2022/04/06 01:54:22;;;;;;;7.35;1.50;;;;;;;;;;6118204;23;20295;-48
2022/04/06 01:56:47;;;;;;;14.07;2.10;;;;;;;;;;6114871;23;20018;-47
2022/04/06 01:59:12;;;;;;;13.57;2.63;;;;;;;;;;6111611;23;20024;-45
2022/04/06 02:01:38;;;;;;;8.63;2.75;;;;;;;;;;6116661;23;20018;-45
2022/04/06 02:04:11;;;;;;;8.68;2.72;;;;;;;;;;6119129;23;20020;-47
2022/04/06 02:06:37;;;;;;;11.45;2.22;;;;;;;;;;6118628;23;20453;-46
2022/04/06 02:09:02;;;;;;;6.03;1.73;;;;;;;;;;6118474;23;20053;-45
2022/04/06 02:11:27;;;;;;;5.65;1.55;;;;;;;;;;6118507;23;20018;-45
2022/04/06 02:13:53;;;;;;;6.53;1.70;;;;;;;;;;6141255;23;20037;-45
2022/04/06 02:16:18;;;;;;;5.80;1.80;;;;;;;;;;6117042;23;20021;-45
2022/04/06 02:18:43;;;;;;;4.13;1.63;;;;;;;;;;6117430;23;20017;-46
2022/04/06 02:21:09;;;;;;;10.77;1.50;;;;;;;;;;6117685;23;20030;-47
2022/04/06 02:23:34;;;;;;;7.20;2.70;;;;;;;;;;6118799;23;20014;-46
2022/04/06 02:25:59;;;;;;;14.38;3.17;;;;;;;;;;6118592;23;20017;-46
2022/04/06 02:28:25;;;;;;;2.22;1.48;;;;;;;;;;6118306;23;20021;-45
2022/04/06 02:30:50;;;;;;;7.78;2.20;;;;;;;;;;6118290;23;20014;-45
2022/04/06 02:33:15;;;;;;;7.47;1.60;;;;;;;;;;6117227;23;20402;-46
2022/04/06 02:35:40;;;;;;;9.90;1.95;;;;;;;;;;6118694;23;20385;-45
2022/04/06 02:38:05;;;;;;;9.13;1.90;;;;;;;;;;6118342;23;20480;-47
2022/04/06 02:40:33;;;;;;;9.00;2.30;;;;;;;;;;6116874;23;20018;-45
2022/04/06 02:42:58;;;;;;;8.75;2.97;;;;;;;;;;6118524;23;20077;-45
2022/04/06 02:45:23;;;;;;;7.93;2.08;;;;;;;;;;6117366;23;20014;-45
2022/04/06 02:47:49;;;;;;;11.30;2.45;;;;;;;;;;6118615;23;20014;-47
2022/04/06 02:50:14;;;;;;;13.82;3.08;;;;;;;;;;6116396;23;20037;-45
2022/04/06 02:52:39;;;;;;;13.80;2.97;;;;;;;;;;6118200;23;20051;-45
2022/04/06 02:55:05;;;;;;;8.55;2.40;;;;;;;;;;6115338;23;20065;-47
2022/04/06 02:57:30;;;;;;;10.98;3.42;;;;;;;;;;6118048;23;20010;-47
2022/04/06 02:59:56;;;;;;;9.07;2.10;;;;;;;;;;6118221;23;20025;-46
2022/04/06 03:02:21;;;;;;;8.05;2.35;;;;;;;;;;6115381;23;20070;-47
2022/04/06 03:04:46;;;;;;;15.07;2.55;;;;;;;;;;6119254;23;20018;-46
2022/04/06 03:07:16;;;;;;;7.88;1.95;;;;;;;;;;6113233;23;20045;-44
2022/04/06 03:09:41;;;;;;;;;;;;;;;;;;6119362;23;20010;-46
2022/04/06 03:12:07;;;;;;;7.75;3.40;;;;;;;;;;6118339;23;19915;-47
2022/04/06 03:14:32;;;;;;;10.93;2.92;;;;;;;;;;6117437;23;20022;-48
2022/04/06 03:16:57;;;;;;;6.50;1.67;;;;;;;;;;6118013;23;20017;-48
2022/04/06 03:19:24;;;;;;;8.25;3.33;;;;;;;;;;6118064;23;20029;-47
2022/04/06 03:21:49;;;;;;;8.82;2.08;;;;;;;;;;6117267;23;20038;-47
2022/04/06 03:24:14;;;;;;;9.68;2.15;;;;;;;;;;6117755;23;20014;-46
2022/04/06 03:26:39;;;;;;;11.15;2.35;;;;;;;;;;6117906;23;20014;-47
2022/04/06 03:29:05;;;;;;;12.60;2.40;;;;;;;;;;6118590;23;20053;-47
2022/04/06 03:31:30;;;;;;;13.75;3.22;;;;;;;;;;6118017;23;20018;-45
2022/04/06 03:33:55;;;;;;;3.83;1.45;;;;;;;;;;6118036;23;20092;-48
2022/04/06 03:36:20;;;;;;;6.40;1.73;;;;;;;;;;6117889;23;20017;-46
2022/04/06 03:38:46;;;;;;;5.40;1.48;;;;;;;;;;6117942;23;20088;-46
2022/04/06 03:41:11;;;;;;;8.63;1.80;;;;;;;;;;6117898;23;20025;-46
2022/04/06 03:43:36;;;;;;;12.30;2.22;;;;;;;;;;6118533;23;20020;-46
2022/04/06 03:46:02;;;;;;;5.32;1.60;;;;;;;;;;6118234;23;20037;-45
2022/04/06 03:48:27;;;;;;;2.22;1.25;;;;;;;;;;6117131;23;20409;-45
2022/04/06 03:50:52;;;;;;;4.15;1.80;;;;;;;;;;6118447;23;20020;-46
2022/04/06 03:53:18;;;;;;;9.68;1.50;;;;;;;;;;6117241;23;20042;-46
2022/04/06 03:55:43;;;;;;;10.60;1.98;;;;;;;;;;6118656;23;20006;-45
2022/04/06 03:58:09;;;;;;;2.25;1.35;;;;;;;;;;6117082;23;20025;-46
2022/04/06 04:00:34;;;;;;;5.15;1.95;;;;;;;;;;6117274;23;20116;-47
2022/04/06 04:03:00;;;;;;;5.55;1.75;;;;;;;;;;6118152;23;20029;-48
2022/04/06 04:05:25;;;;;;;3.47;1.55;;;;;;;;;;6117732;23;20014;-47
2022/04/06 04:07:51;;;;;;;4.22;1.40;;;;;;;;;;6138778;23;20077;-45
2022/04/06 04:10:19;;;;;;;1.90;0.98;;;;;;;;;;6119312;23;20100;-50
2022/04/06 04:12:44;;;;;;;2.20;1.50;;;;;;;;;;6119851;23;20038;-45
2022/04/06 04:15:10;;;;;;;6.88;1.55;;;;;;;;;;6120506;23;20030;-45
2022/04/06 04:17:35;;;;;;;8.80;1.75;;;;;;;;;;6118480;23;20021;-46
2022/04/06 04:20:01;;;;;;;4.18;1.73;;;;;;;;;;6120593;23;20037;-46
2022/04/06 04:22:26;;;;;;;10.13;1.75;;;;;;;;;;6118294;23;20096;-45
2022/04/06 04:24:51;;;;;;;2.85;1.55;;;;;;;;;;6121134;23;20017;-45
2022/04/06 04:27:16;;;;;;;6.60;1.77;;;;;;;;;;6117584;23;20033;-45
2022/04/06 04:29:42;;;;;;;4.88;1.95;;;;;;;;;;6120239;23;20014;-45
2022/04/06 04:32:10;;;;;;;4.57;1.75;;;;;;;;;;6118263;23;20376;-47
2022/04/06 04:34:35;;;;;;;6.68;2.60;;;;;;;;;;6120114;23;20018;-47
2022/04/06 04:37:00;;;;;;;3.67;1.60;;;;;;;;;;6118925;23;20034;-45
2022/04/06 04:39:26;;;;;;;4.05;1.70;;;;;;;;;;6117095;23;20022;-48
2022/04/06 04:41:51;;;;;;;8.57;2.38;;;;;;;;;;6119557;23;20022;-48
2022/04/06 04:44:16;;;;;;;2.78;2.30;;;;;;;;;;6117957;23;20014;-47
2022/04/06 04:46:41;;;;;;;5.40;2.25;;;;;;;;;;6120324;23;20111;-47
2022/04/06 04:49:07;;;;;;;3.95;1.35;;;;;;;;;;6118622;23;20018;-47
2022/04/06 04:51:32;;;;;;;1.27;1.00;;;;;;;;;;6118965;23;20014;-45
2022/04/06 04:53:59;;;;;;;1.52;0.90;;;;;;;;;;6118174;23;20479;-46
2022/04/06 04:56:25;;;;;;;1.63;1.00;;;;;;;;;;6118930;23;20642;-46
2022/04/06 04:58:50;;;;;;;0.80;0.80;;;;;;;;;;6118566;23;20025;-46
2022/04/06 05:01:16;;;;;;;2.55;1.00;;;;;;;;;;6118250;23;20029;-50
2022/04/06 05:03:41;;;;;;;2.90;1.58;;;;;;;;;;6120005;23;20096;-47
2022/04/06 05:06:06;;;;;;;4.63;1.40;;;;;;;;;;6119459;23;20010;-45
2022/04/06 05:08:32;;;;;;;5.25;1.35;;;;;;;;;;6119435;23;20014;-47
2022/04/06 05:10:57;;;;;;;12.18;2.28;;;;;;;;;;6116081;23;20048;-46
2022/04/06 05:13:22;;;;;;;4.38;2.28;;;;;;;;;;6117754;23;20014;-46
2022/04/06 05:15:47;;;;;;;3.85;1.10;;;;;;;;;;6118727;23;20021;-46
2022/04/06 05:18:13;;;;;;;4.55;1.52;;;;;;;;;;6119467;23;20356;-45
2022/04/06 05:20:38;;;;;;;3.35;1.15;;;;;;;;;;6118561;23;20022;-49
2022/04/06 05:23:04;;;;;;;3.47;1.98;;;;;;;;;;6116656;23;20025;-48
2022/04/06 05:25:29;;;;;;;1.08;0.80;;;;;;;;;;6118153;23;20018;-45
2022/04/06 05:27:55;;;;;;;5.07;1.70;;;;;;;;;;6119386;23;20013;-47
2022/04/06 05:30:23;;;;;;;3.20;1.45;;;;;;;;;;6117967;23;20022;-45
2022/04/06 05:32:49;;;;;;;2.08;1.00;;;;;;;;;;6119418;23;20033;-46
2022/04/06 05:35:14;;;;;;;3.15;1.13;;;;;;;;;;6118092;23;20018;-45
2022/04/06 05:37:41;;;;;;;7.22;1.90;;;;;;;;;;6118195;23;20013;-49
2022/04/06 05:40:07;;;;;;;1.73;1.10;;;;;;;;;;6118996;23;20260;-46
2022/04/06 05:42:32;;;;;;;1.70;1.40;;;;;;;;;;6116794;23;20049;-46
2022/04/06 05:44:58;;;;;;;4.03;1.65;;;;;;;;;;6119191;23;20326;-45
2022/04/06 05:47:23;;;;;;;2.38;1.75;;;;;;;;;;6117239;23;20038;-45
2022/04/06 05:49:48;;;;;;;7.57;2.00;;;;;;;;;;6119405;23;20014;-45
2022/04/06 05:52:14;;;;;;;3.75;1.30;;;;;;;;;;6116969;23;20028;-45
2022/04/06 05:54:39;;;;;;;3.45;1.70;;;;;;;;;;6117449;23;20010;-47
2022/04/06 05:57:04;;;;;;;4.72;1.27;;;;;;;;;;6118650;23;20072;-45
2022/04/06 05:59:30;;;;;;;1.70;0.98;;;;;;;;;;6118538;23;20022;-44
2022/04/06 06:01:55;;;;;;;3.03;1.40;;;;;;;;;;6116988;23;20327;-46
2022/04/06 06:04:20;;;;;;;1.92;0.90;;;;;;;;;;6118961;23;20014;-44
2022/04/06 06:06:45;;;;;;;1.40;0.70;;;;;;;;;;6119004;23;20010;-46
2022/04/06 06:09:10;;;;;;;2.45;0.98;;;;;;;;;;6116984;23;20037;-45
2022/04/06 06:11:36;;;;;;;1.02;0.70;;;;;;;;;;6119644;23;20006;-45
2022/04/06 06:14:02;;;;;;;3.33;0.70;;;;;;;;;;6118630;23;20029;-45
2022/04/06 06:16:28;;;;;;;1.58;0.80;;;;;;;;;;6118610;23;20026;-47
2022/04/06 06:18:55;;;;;;;0.65;0.50;;;;;;;;;;6118809;23;20066;-44
2022/04/06 06:21:20;;;;;;;0.95;0.93;;;;;;;;;;6118069;23;20045;-46
2022/04/06 06:23:46;;;;;;;4.00;0.90;;;;;;;;;;6117130;23;20010;-45
2022/04/06 06:26:11;;;;;;;1.27;0.65;;;;;;;;;;6118864;23;20022;-45
2022/04/06 06:28:36;;;;;;;2.20;0.63;;;;;;;;;;6117842;23;20023;-46
2022/04/06 06:31:01;;;;;;;7.05;1.10;;;;;;;;;;6118533;23;20025;-46
2022/04/06 06:33:27;;;;;;;2.47;1.50;;;;;;;;;;6115378;23;20595;-44
2022/04/06 06:35:52;;;;;;;2.35;0.60;;;;;;;;;;6117911;23;20001;-45
2022/04/06 06:38:18;;;;;;;5.32;1.05;;;;;;;;;;6117348;23;20052;-46
2022/04/06 06:40:43;;;;;;;3.55;1.45;;;;;;;;;;6117500;23;20018;-45
2022/04/06 06:43:08;;;;;;;2.10;1.27;;;;;;;;;;6118503;23;20065;-46
2022/04/06 06:45:33;;;;;;;1.48;0.88;;;;;;;;;;6117510;23;20013;-45
2022/04/06 06:47:59;;;;;;;4.10;1.10;;;;;;;;;;6117712;23;20025;-46
2022/04/06 06:50:24;;;;;;;3.67;0.80;;;;;;;;;;6116066;23;20017;-45
2022/04/06 06:52:50;;;;;;;2.10;0.77;;;;;;;;;;6118145;23;20033;-45
2022/04/06 06:55:16;;;;;;;1.58;0.85;;;;;;;;;;6117701;23;20021;-45
2022/04/06 06:57:41;;;;;;;4.53;1.65;;;;;;;;;;6117383;23;20061;-45
2022/04/06 07:00:07;;;;;;;6.28;0.70;;;;;;;;;;6118981;23;20022;-45
2022/04/06 07:02:32;;;;;;;3.70;1.17;;;;;;;;;;6115497;23;20017;-47
2022/04/06 07:04:57;;;;;;;2.78;0.70;;;;;;;;;;6119488;23;20028;-47
2022/04/06 07:07:23;;;;;;;2.70;1.30;;;;;;;;;;6115925;23;20014;-45
2022/04/06 07:09:48;;;;;;;7.28;1.40;;;;;;;;;;6119151;23;20478;-45
2022/04/06 07:12:13;;;;;;;2.95;1.02;;;;;;;;;;6115850;23;20393;-47
2022/04/06 07:14:38;;;;;;;3.50;1.00;;;;;;;;;;6115822;23;20018;-47
2022/04/06 07:17:04;;;;;;;5.18;1.40;;;;;;;;;;6116671;23;20074;-47
2022/04/06 07:19:29;;;;;;;7.60;1.85;;;;;;;;;;6117184;23;20010;-46
2022/04/06 07:21:54;;;;;;;4.97;1.52;;;;;;;;;;6116131;23;20064;-46
2022/04/06 07:24:19;;;;;;;6.25;1.58;;;;;;;;;;6103311;23;20065;-47
2022/04/06 07:26:45;;;;;;;4.47;1.30;;;;;;;;;;6106994;23;20404;-47
2022/04/06 07:29:11;;;;;;;8.45;2.20;;;;;;;;;;6110175;23;20519;-46
2022/04/06 07:31:39;;;;;;;6.10;2.03;;;;;;;;;;6119031;23;20527;-50
2022/04/06 07:34:05;;;;;;;8.40;2.17;;;;;;;;;;6114439;23;20091;-45
2022/04/06 07:36:32;;;;;;;7.93;2.22;;;;;;;;;;6118246;23;20018;-47
2022/04/06 07:38:58;;;;;;;6.95;2.63;;;;;;;;;;6115847;23;20336;-48
2022/04/06 07:41:25;;;;;;;5.93;1.92;;;;;;;;;;6117049;23;20468;-45
2022/04/06 07:43:50;;;;;;;6.32;2.60;;;;;;;;;;6116398;23;20006;-48
2022/04/06 07:46:16;;;;;;;6.90;1.33;;;;;;;;;;6110083;23;20520;-49
2022/04/06 07:48:41;;;;;;;3.63;2.00;;;;;;;;;;6106686;23;20089;-48
2022/04/06 07:51:07;;;;;;;12.65;1.77;;;;;;;;;;6116017;23;20018;-46
2022/04/06 07:53:32;;;;;;;8.32;1.85;;;;;;;;;;6110557;23;20029;-48
2022/04/06 07:55:57;;;;;;;6.22;1.75;;;;;;;;;;6118757;23;20022;-46
2022/04/06 07:58:23;;;;;;;4.55;1.48;;;;;;;;;;6116424;23;20042;-46
2022/04/06 08:00:49;;;;;;;8.15;2.22;;;;;;;;;;6116711;23;20025;-45
2022/04/06 08:03:14;;;;;;;3.13;1.13;;;;;;;;;;6117440;23;20141;-46
2022/04/06 08:05:40;;;;;;;2.80;1.77;;;;;;;;;;6115308;23;20017;-47
2022/04/06 08:08:05;;;;;;;7.30;1.27;;;;;;;;;;6101542;23;20017;-45
2022/04/06 08:10:30;;;;;;;8.30;1.38;;;;;;;;;;6111314;23;20009;-47
2022/04/06 08:12:56;;;;;;;14.18;2.10;;;;;;;;;;6113782;23;20014;-48
2022/04/06 08:15:21;;;;;;;4.85;1.77;;;;;;;;;;6109456;23;20030;-45
2022/04/06 08:17:47;;;;;;;5.53;2.53;;;;;;;;;;6137459;23;20037;-49
2022/04/06 08:20:12;;;;;;;7.80;2.47;;;;;;;;;;6111987;23;20022;-45
2022/04/06 08:22:39;;;;;;;5.78;2.00;;;;;;;;;;6111866;23;20013;-45
2022/04/06 08:25:04;;;;;;;8.15;2.03;;;;;;;;;;6111065;23;20020;-47
2022/04/06 08:27:32;;;;;;;8.68;1.60;;;;;;;;;;6105881;23;20093;-46
2022/04/06 08:29:57;;;;;;;8.95;1.58;;;;;;;;;;6106595;23;20020;-46
2022/04/06 08:32:22;;;;;;;6.43;1.73;;;;;;;;;;6116908;23;20066;-46
2022/04/06 08:34:48;;;;;;;4.20;1.80;;;;;;;;;;6115228;23;20018;-45
2022/04/06 08:37:14;;;;;;;9.43;1.95;;;;;;;;;;6118962;23;20109;-46
2022/04/06 08:39:39;;;;;;;5.43;1.85;;;;;;;;;;6116696;23;20014;-46
2022/04/06 08:42:04;;;;;;;12.18;3.35;;;;;;;;;;6118532;23;20041;-46
2022/04/06 08:44:30;;;;;;;7.25;1.88;;;;;;;;;;6115586;23;20432;-48
2022/04/06 08:46:58;;;;;;;10.50;1.90;;;;;;;;;;6117002;23;20013;-50
2022/04/06 08:49:24;;;;;;;15.38;2.50;;;;;;;;;;6116764;23;20010;-46
2022/04/06 08:51:51;;;;;;;7.07;1.42;;;;;;;;;;6117271;23;20029;-48
2022/04/06 08:54:16;;;;;;;13.57;2.20;;;;;;;;;;6116268;23;20321;-46
2022/04/06 08:56:42;;;;;;;5.95;1.85;;;;;;;;;;6116680;23;20021;-45
2022/04/06 08:59:07;;;;;;;6.57;1.80;;;;;;;;;;6119538;23;20050;-45
2022/04/06 09:01:34;;;;;;;9.23;1.90;;;;;;;;;;6118974;23;20131;-47
2022/04/06 09:04:00;;;;;;;9.80;2.03;;;;;;;;;;6118551;23;20022;-47
2022/04/06 09:06:29;;;;;;;8.98;1.60;;;;;;;;;;6118659;23;20041;-48
2022/04/06 09:08:54;;;;;;;7.97;3.28;;;;;;;;;;6119500;23;20038;-48
2022/04/06 09:11:23;;;;;;;12.90;1.65;;;;;;;;;;6118700;23;20017;-47
2022/04/06 09:13:56;;;;;;;15.60;2.45;;;;;;;;;;6117967;23;20006;-46
2022/04/06 09:16:21;;;;;;;10.50;1.80;;;;;;;;;;6118928;23;20420;-45
2022/04/06 09:18:48;;;;;;;10.27;2.35;;;;;;;;;;6116446;23;20092;-47
2022/04/06 09:21:16;;;;;;;7.15;1.73;;;;;;;;;;6141092;23;20409;-45
2022/04/06 09:23:43;;;;;;;10.17;2.30;;;;;;;;;;6117794;23;20006;-46
2022/04/06 09:26:10;;;;;;;4.43;1.88;;;;;;;;;;6119431;23;20009;-45
2022/04/06 09:28:40;;;;;;;10.90;1.95;;;;;;;;;;6116937;23;20560;-47
2022/04/06 09:31:06;;;;;;;12.88;2.28;;;;;;;;;;6118755;23;20093;-48
2022/04/06 09:33:31;;;;;;;9.60;1.88;;;;;;;;;;6113732;23;20010;-46
2022/04/06 09:35:58;;;;;;;8.50;1.90;;;;;;;;;;6116750;23;20372;-45
2022/04/06 09:38:25;;;;;;;6.70;1.77;;;;;;;;;;6118824;23;20425;-44
2022/04/06 09:40:59;;;;;;;13.05;2.67;;;;;;;;;;6115712;23;20021;-46
2022/04/06 09:43:26;;;;;;;11.95;2.63;;;;;;;;;;6119414;23;20021;-44
2022/04/06 09:48:54;;;;;;;8.38;1.52;;;;;;;;;;6113808;23;20061;-46
2022/04/06 09:51:19;;;;;;;9.73;2.17;;;;;;;;;;6114630;23;20397;-46
2022/04/06 09:53:48;;;;;;;5.22;1.75;;;;;;;;;;6116937;23;20014;-44
2022/04/06 09:56:13;;;;;;;7.63;1.50;;;;;;;;;;6117238;23;20014;-45
2022/04/06 09:58:38;;;;;;;10.75;2.08;;;;;;;;;;6119514;23;20029;-46
2022/04/06 10:01:04;;;;;;;5.57;1.35;;;;;;;;;;6117490;23;20588;-45
2022/04/06 10:03:29;;;;;;;12.80;2.38;;;;;;;;;;6118464;23;20044;-45
2022/04/06 10:05:55;;;;;;;11.98;1.98;;;;;;;;;;6140897;23;20042;-44
2022/04/06 10:08:21;;;;;;;11.80;1.80;;;;;;;;;;6116588;23;20109;-45
2022/04/06 10:10:47;;;;;;;7.68;2.53;;;;;;;;;;6116575;23;20017;-45
2022/04/06 10:13:12;;;;;;;7.13;3.20;;;;;;;;;;6118395;23;20328;-45
2022/04/06 10:15:39;;;;;;;13.00;3.30;;;;;;;;;;6115935;23;20663;-45
2022/04/06 10:18:05;;;;;;;11.73;2.10;;;;;;;;;;6119116;23;20069;-45
2022/04/06 10:20:40;;;;;;;10.65;2.83;;;;;;;;;;6114196;23;20022;-47
2022/04/06 10:23:08;;;;;;;7.28;2.35;;;;;;;;;;6114442;23;20022;-47
2022/04/06 10:25:36;;;;;;;7.35;2.03;;;;;;;;;;6114045;23;20014;-46
2022/04/06 10:28:04;;;;;;;13.63;3.00;;;;;;;;;;6118124;23;20113;-46
2022/04/06 10:30:29;;;;;;;3.17;1.70;;;;;;;;;;6114705;23;20037;-46
2022/04/06 10:32:57;;;;;;;9.30;2.60;;;;;;;;;;6114877;23;20421;-45
2022/04/06 10:35:23;;;;;;;4.68;2.00;;;;;;;;;;6113324;23;20014;-46
2022/04/06 10:38:11;;;;;;;8.57;2.10;;;;;;;;;;6116356;23;20014;-44
2022/04/06 10:40:46;;;;;;;5.85;1.70;;;;;;;;;;6117217;23;20045;-46
2022/04/06 10:43:30;;;;;;;11.27;1.90;;;;;;;;;;6117581;23;20014;-46
2022/04/06 10:45:57;;;;;;;13.20;2.72;;;;;;;;;;6116476;23;20488;-48
2022/04/06 10:48:23;;;;;;;3.35;1.65;;;;;;;;;;6117093;23;20018;-45
2022/04/06 10:50:48;;;;;;;5.18;1.38;;;;;;;;;;6118702;23;20018;-46
2022/04/06 10:53:22;;;;;;;12.07;2.30;;;;;;;;;;6137467;23;20342;-46
2022/04/06 10:56:02;;;;;;;5.88;1.67;;;;;;;;;;6118100;23;20121;-48
2022/04/06 10:58:28;;;;;;;13.48;2.58;;;;;;;;;;6115129;23;20260;-47
2022/04/06 11:01:14;;;;;;;4.75;1.70;;;;;;;;;;6110709;23;20440;-49
2022/04/06 11:03:40;;;;;;;7.97;1.52;;;;;;;;;;6117615;23;20104;-47
2022/04/06 11:06:06;;;;;;;6.03;1.65;;;;;;;;;;6116034;23;20080;-45
2022/04/06 11:11:40;;;;;;;3.72;1.45;;;;;;;;;;6119005;23;20340;-48
2022/04/06 11:14:06;;;;;;;3.67;2.00;;;;;;;;;;6116352;23;20057;-46
2022/04/06 11:16:45;;;;;;;6.03;1.38;;;;;;;;;;6118949;23;20057;-48
2022/04/06 11:19:10;;;;;;;8.27;1.75;;;;;;;;;;6116862;23;20034;-45
2022/04/06 11:21:44;;;;;;;5.32;1.50;;;;;;;;;;6118321;23;20025;-44
2022/04/06 11:24:10;;;;;;;6.32;0.88;;;;;;;;;;6116033;23;20516;-46
2022/04/06 11:26:39;;;;;;;3.67;0.77;;;;;;;;;;6119481;23;20017;-50
2022/04/06 11:29:04;;;;;;;3.25;0.93;;;;;;;;;;6118221;23;20452;-45
2022/04/06 11:31:29;;;;;;;2.97;1.33;;;;;;;;;;6117904;23;20049;-46
2022/04/06 11:33:55;;;;;;;4.72;1.15;;;;;;;;;;6117357;23;20345;-47
2022/04/06 11:36:21;;;;;;;4.25;1.10;;;;;;;;;;6115985;23;20022;-47
2022/04/06 11:38:50;;;;;;;4.05;1.08;;;;;;;;;;6118196;23;20006;-47
2022/04/06 11:41:16;;;;;;;4.63;0.73;;;;;;;;;;6115847;23;20069;-50
2022/04/06 11:43:42;;;;;;;3.33;1.63;;;;;;;;;;6118327;23;20022;-48
2022/04/06 11:46:07;;;;;;;3.15;0.95;;;;;;;;;;6116190;23;20838;-44
2022/04/06 11:48:40;;;;;;;8.00;1.60;;;;;;;;;;6118280;23;20014;-46
2022/04/06 11:51:05;;;;;;;4.18;0.80;;;;;;;;;;6117502;23;20536;-47
2022/04/06 11:53:30;;;;;;;3.45;1.10;;;;;;;;;;6115317;23;20009;-47
2022/04/06 11:55:57;;;;;;;4.13;1.02;;;;;;;;;;6117879;23;20308;-47
2022/04/06 11:58:34;;;;;;;8.93;1.38;;;;;;;;;;6115729;23;20066;-48
2022/04/06 12:01:02;;;;;;;3.17;0.93;;;;;;;;;;6117601;23;20072;-47
2022/04/06 12:03:28;;;;;;;2.10;0.98;;;;;;;;;;6112441;23;20207;-48
2022/04/06 12:05:53;;;;;;;2.33;0.90;;;;;;;;;;6116134;23;20044;-50
2022/04/06 12:08:18;;;;;;;2.03;1.30;;;;;;;;;;6114771;23;20745;-46
2022/04/06 12:10:48;;;;;;;10.73;2.25;;;;;;;;;;6117659;23;20582;-47
2022/04/06 12:13:13;;;;;;;3.95;0.98;;;;;;;;;;6117394;23;20057;-45
2022/04/06 12:15:39;;;;;;;3.53;1.15;;;;;;;;;;6116760;23;20022;-50
2022/04/06 12:18:05;;;;;;;2.65;1.23;;;;;;;;;;6114548;23;20021;-45
2022/04/06 12:20:30;;;;;;;4.75;1.25;;;;;;;;;;6116885;23;20014;-46
2022/04/06 12:23:03;;;;;;;4.13;0.98;;;;;;;;;;6116664;23;20024;-48
2022/04/06 12:25:32;;;;;;;3.97;1.35;;;;;;;;;;6107861;23;20018;-47
2022/04/06 12:28:17;;;;;;;7.75;1.45;;;;;;;;;;6115434;23;20010;-47
2022/04/06 12:31:01;;;;;;;4.43;1.48;;;;;;;;;;6113928;23;20012;-49
2022/04/06 12:33:33;;;;;;;3.03;0.93;;;;;;;;;;6113817;23;20018;-49
2022/04/06 12:36:06;;;;;;;1.02;0.60;;;;;;;;;;6113752;23;20033;-57
2022/04/06 12:38:31;;;;;;;3.40;0.52;;;;;;;;;;6115403;23;20014;-55
2022/04/06 12:41:04;;;;;;;6.90;0.63;;;;;;;;;;6114577;23;20228;-57
2022/04/06 12:43:29;;;;;;;5.35;0.75;;;;;;;;;;6113540;23;20018;-54
2022/04/06 12:45:55;;;;;;;2.33;0.35;;;;;;;;;;6112405;23;20033;-56
2022/04/06 12:48:20;;;;;;;1.50;0.47;;;;;;;;;;6112859;23;20037;-52
2022/04/06 12:50:45;;;;;;;1.08;0.32;;;;;;;;;;6115328;23;20093;-53
2022/04/06 12:53:12;;;;;;;0.47;0.32;;;;;;;;;;6115502;23;20010;-56
2022/04/06 12:55:38;;;;;;;6.90;0.70;;;;;;;;;;6116572;23;20010;-54
2022/04/06 12:58:13;;;;;;;1.83;0.70;;;;;;;;;;6118881;23;20452;-52
2022/04/06 13:00:39;;;;;;;4.05;0.60;;;;;;;;;;6118083;23;20026;-53
2022/04/06 13:03:05;;;;;;;0.73;0.32;;;;;;;;;;6120205;23;20025;-55
2022/04/06 13:05:31;;;;;;;1.20;0.50;;;;;;;;;;6119002;23;20018;-53
2022/04/06 13:07:56;;;;;;;1.95;0.52;;;;;;;;;;6118926;23;20018;-52
2022/04/06 13:10:34;;;;;;;1.30;0.65;;;;;;;;;;6119208;23;20407;-52
2022/04/06 13:13:00;;;;;;;3.17;0.60;;;;;;;;;;6117748;23;20029;-54
2022/04/06 13:15:26;;;;;;;3.00;1.20;;;;;;;;;;6118596;23;20381;-52
2022/04/06 13:17:51;;;;;;;2.05;0.80;;;;;;;;;;6118329;23;20085;-51
2022/04/06 13:20:21;;;;;;;1.13;0.50;;;;;;;;;;6118846;23;20075;-50
2022/04/06 13:22:47;;;;;;;1.05;0.45;;;;;;;;;;6117352;23;20040;-52
2022/04/06 13:25:13;;;;;;;0.73;0.30;;;;;;;;;;6116739;23;20062;-55
2022/04/06 13:27:39;;;;;;;2.58;0.50;;;;;;;;;;6119380;23;20014;-55
2022/04/06 13:30:05;;;;;;;0.82;0.50;;;;;;;;;;6118475;23;20314;-56
2022/04/06 13:32:30;;;;;;;3.13;0.70;;;;;;;;;;6119332;23;20177;-54
2022/04/06 13:34:56;;;;;;;1.17;0.73;;;;;;;;;;6117470;23;20010;-55
2022/04/06 13:37:21;;;;;;;3.60;0.50;;;;;;;;;;6117643;23;20017;-54
2022/04/06 13:39:47;;;;;;;3.78;0.70;;;;;;;;;;6117415;23;20014;-51
2022/04/06 13:42:12;;;;;;;2.22;0.60;;;;;;;;;;6115891;23;20025;-53
2022/04/06 13:44:38;;;;;;;10.60;0.75;;;;;;;;;;6115424;23;20267;-54
2022/04/06 13:47:04;;;;;;;3.72;0.98;;;;;;;;;;6118755;23;20088;-55
2022/04/06 13:49:29;;;;;;;1.38;0.85;;;;;;;;;;6116902;23;20037;-55
2022/04/06 13:51:55;;;;;;;5.35;1.00;;;;;;;;;;6119108;23;20014;-55
2022/04/06 13:54:21;;;;;;;2.83;0.88;;;;;;;;;;6118086;23;20014;-51
2022/04/06 13:56:47;;;;;;;4.28;0.90;;;;;;;;;;6112359;23;20591;-54
2022/04/06 13:59:13;;;;;;;6.53;1.10;;;;;;;;;;6119086;23;20014;-52
2022/04/06 14:01:38;;;;;;;5.00;0.93;;;;;;;;;;6118151;23;20018;-53
2022/04/06 14:04:04;;;;;;;2.90;0.82;;;;;;;;;;6117530;23;20014;-50
2022/04/06 14:06:29;;;;;;;3.97;1.00;;;;;;;;;;6117344;23;20017;-52
2022/04/06 14:08:55;;;;;;;4.03;1.08;;;;;;;;;;6118885;23;20012;-54
2022/04/06 14:11:20;;;;;;;2.53;0.90;;;;;;;;;;6118345;23;20014;-49
2022/04/06 14:13:45;;;;;;;6.05;1.13;;;;;;;;;;6117166;23;20022;-57
2022/04/06 14:16:11;;;;;;;6.07;1.33;;;;;;;;;;6119070;23;20018;-54
2022/04/06 14:18:36;;;;;;;6.13;1.17;;;;;;;;;;6119372;23;20385;-51
2022/04/06 14:21:01;;;;;;;7.28;2.58;;;;;;;;;;6117803;23;20610;-54
2022/04/06 14:23:27;;;;;;;5.18;1.60;;;;;;;;;;6118222;23;20018;-49
2022/04/06 14:25:52;;;;;;;5.32;1.65;;;;;;;;;;6119784;23;20094;-49
2022/04/06 14:28:17;;;;;;;7.25;1.35;;;;;;;;;;6114661;23;20475;-49
2022/04/06 14:30:48;;;;;;;3.75;1.40;;;;;;;;;;6119298;23;20017;-51
2022/04/06 14:33:17;;;;;;;5.63;1.30;;;;;;;;;;6117526;23;20010;-54
2022/04/06 14:35:43;;;;;;;8.30;3.13;;;;;;;;;;6115883;23;20065;-52
2022/04/06 14:38:08;;;;;;;3.95;1.50;;;;;;;;;;6118516;23;20022;-53
2022/04/06 14:40:33;;;;;;;5.40;1.67;;;;;;;;;;6139136;23;20029;-50
2022/04/06 14:42:59;;;;;;;4.38;1.42;;;;;;;;;;6119365;23;20049;-51
2022/04/06 14:45:24;;;;;;;8.85;2.00;;;;;;;;;;6116231;23;20024;-52
2022/04/06 14:47:50;;;;;;;8.23;1.58;;;;;;;;;;6120199;23;20010;-51